createdAt,value
2022-09-25T00:00:31.179Z,1007.30
2022-09-25T00:01:31.197Z,1007.28
2022-09-25T00:02:31.198Z,1007.26
2022-09-25T00:03:31.121Z,1007.32
2022-09-25T00:04:31.210Z,1007.29
2022-09-25T00:05:31.087Z,1007.29
2022-09-25T00:06:31.069Z,1007.32
2022-09-25T00:07:31.050Z,1007.30
2022-09-25T00:08:31.035Z,1007.32
2022-09-25T00:09:31.015Z,1007.34
2022-09-25T00:10:30.996Z,1007.30
2022-09-25T00:11:30.980Z,1007.36
2022-09-25T00:12:30.964Z,1007.34
2022-09-25T00:13:30.937Z,1007.35
2022-09-25T00:14:30.925Z,1007.35
2022-09-25T00:15:30.905Z,1007.33
2022-09-25T00:16:30.954Z,1007.34
2022-09-25T00:17:30.870Z,1007.32
2022-09-25T00:18:30.850Z,1007.32
2022-09-25T00:19:30.831Z,1007.33
2022-09-25T00:20:30.837Z,1007.32
2022-09-25T00:21:30.794Z,1007.32
2022-09-25T00:22:30.776Z,1007.33
2022-09-25T00:23:30.766Z,1007.36
2022-09-25T00:24:30.739Z,1007.36
2022-09-25T00:25:30.724Z,1007.34
2022-09-25T00:26:30.701Z,1007.36
2022-09-25T00:27:30.688Z,1007.34
2022-09-25T00:28:30.668Z,1007.34
2022-09-25T00:29:30.651Z,1007.34
2022-09-25T00:30:30.799Z,1007.30
2022-09-25T00:31:30.619Z,1007.32
2022-09-25T00:32:30.595Z,1007.35
2022-09-25T00:33:30.580Z,1007.31
2022-09-25T00:34:30.562Z,1007.32
2022-09-25T00:35:30.543Z,1007.33
2022-09-25T00:36:30.545Z,1007.29
2022-09-25T00:37:30.509Z,1007.33
2022-09-25T00:38:30.483Z,1007.29
2022-09-25T00:39:30.467Z,1007.26
2022-09-25T00:40:30.489Z,1007.31
2022-09-25T00:41:30.432Z,1007.30
2022-09-25T00:42:30.412Z,1007.30
2022-09-25T00:43:30.393Z,1007.29
2022-09-25T00:44:30.376Z,1007.31
2022-09-25T00:45:30.358Z,1007.30
2022-09-25T00:46:30.404Z,1007.30
2022-09-25T00:47:30.320Z,1007.30
2022-09-25T00:48:30.300Z,1007.33
2022-09-25T00:49:30.287Z,1007.32
2022-09-25T00:50:30.265Z,1007.29
2022-09-25T00:51:30.250Z,1007.33
2022-09-25T00:52:30.249Z,1007.34
2022-09-25T00:53:30.218Z,1007.35
2022-09-25T00:54:30.194Z,1007.34
2022-09-25T00:55:30.174Z,1007.36
2022-09-25T00:56:30.171Z,1007.37
2022-09-25T00:57:30.155Z,1007.39
2022-09-25T00:58:30.119Z,1007.40
2022-09-25T00:59:30.101Z,1007.40
2022-09-25T01:00:30.083Z,1007.39
2022-09-25T01:01:30.174Z,1007.39
2022-09-25T01:02:30.165Z,1007.40
2022-09-25T01:03:30.054Z,1007.40
2022-09-25T01:04:30.014Z,1007.39
2022-09-25T01:05:29.995Z,1007.42
2022-09-25T01:06:29.975Z,1007.44
2022-09-25T01:07:29.961Z,1007.45
2022-09-25T01:08:29.962Z,1007.43
2022-09-25T01:09:29.925Z,1007.43
2022-09-25T01:10:29.902Z,1007.40
2022-09-25T01:11:29.885Z,1007.42
2022-09-25T01:12:29.870Z,1007.43
2022-09-25T01:13:29.913Z,1007.42
2022-09-25T01:14:29.830Z,1007.42
2022-09-25T01:15:29.808Z,1007.43
2022-09-25T01:16:29.817Z,1007.40
2022-09-25T01:17:29.774Z,1007.38
2022-09-25T01:18:29.753Z,1007.41
2022-09-25T01:19:29.742Z,1007.39
2022-09-25T01:20:29.726Z,1007.40
2022-09-25T01:21:29.702Z,1007.40
2022-09-25T01:22:29.683Z,1007.40
2022-09-25T01:23:29.664Z,1007.39
2022-09-25T01:24:29.671Z,1007.41
2022-09-25T01:25:29.634Z,1007.37
2022-09-25T01:26:29.609Z,1007.35
2022-09-25T01:27:29.593Z,1007.31
2022-09-25T01:28:29.578Z,1007.34
2022-09-25T01:29:29.551Z,1007.36
2022-09-25T01:30:29.561Z,1007.34
2022-09-25T01:31:29.520Z,1007.33
2022-09-25T01:32:29.498Z,1007.35
2022-09-25T01:33:29.486Z,1007.34
2022-09-25T01:34:29.462Z,1007.31
2022-09-25T01:35:29.444Z,1007.35
2022-09-25T01:36:29.428Z,1007.32
2022-09-25T01:37:29.413Z,1007.34
2022-09-25T01:38:29.388Z,1007.30
2022-09-25T01:39:29.373Z,1007.32
2022-09-25T01:40:29.462Z,1007.35
2022-09-25T01:41:29.332Z,1007.33
2022-09-25T01:42:29.314Z,1007.37
2022-09-25T01:43:29.303Z,1007.33
2022-09-25T01:44:29.279Z,1007.32
2022-09-25T01:45:29.260Z,1007.34
2022-09-25T01:46:29.291Z,1007.34
2022-09-25T01:47:29.224Z,1007.30
2022-09-25T01:48:29.208Z,1007.33
2022-09-25T01:49:29.188Z,1007.31
2022-09-25T01:50:29.171Z,1007.28
2022-09-25T01:51:29.160Z,1007.30
2022-09-25T01:52:29.133Z,1007.29
2022-09-25T01:53:29.112Z,1007.30
2022-09-25T01:54:29.094Z,1007.24
2022-09-25T01:55:29.077Z,1007.27
2022-09-25T01:56:29.078Z,1007.25
2022-09-25T01:57:29.041Z,1007.24
2022-09-25T01:58:29.018Z,1007.25
2022-09-25T01:59:29.004Z,1007.21
2022-09-25T02:00:28.984Z,1007.27
2022-09-25T02:01:29.050Z,1007.27
2022-09-25T02:02:28.984Z,1007.27
2022-09-25T02:03:28.933Z,1007.29
2022-09-25T02:04:28.909Z,1007.29
2022-09-25T02:05:28.896Z,1007.30
2022-09-25T02:06:28.872Z,1007.27
2022-09-25T02:07:28.858Z,1007.27
2022-09-25T02:08:28.840Z,1007.28
2022-09-25T02:09:28.819Z,1007.25
2022-09-25T02:10:28.799Z,1007.25
2022-09-25T02:11:28.778Z,1007.25
2022-09-25T02:12:28.787Z,1007.24
2022-09-25T02:13:28.744Z,1007.21
2022-09-25T02:14:28.727Z,1007.20
2022-09-25T02:15:28.710Z,1007.23
2022-09-25T02:16:28.714Z,1007.25
2022-09-25T02:17:28.669Z,1007.29
2022-09-25T02:18:28.650Z,1007.26
2022-09-25T02:19:28.639Z,1007.27
2022-09-25T02:20:28.620Z,1007.28
2022-09-25T02:21:28.598Z,1007.31
2022-09-25T02:22:28.581Z,1007.30
2022-09-25T02:23:28.564Z,1007.33
2022-09-25T02:24:28.540Z,1007.34
2022-09-25T02:25:28.524Z,1007.40
2022-09-25T02:26:28.504Z,1007.38
2022-09-25T02:27:28.489Z,1007.39
2022-09-25T02:28:28.490Z,1007.40
2022-09-25T02:29:28.452Z,1007.40
2022-09-25T02:30:28.476Z,1007.44
2022-09-25T02:31:28.413Z,1007.44
2022-09-25T02:32:28.409Z,1007.43
2022-09-25T02:33:28.377Z,1007.47
2022-09-25T02:34:28.358Z,1007.46
2022-09-25T02:35:28.341Z,1007.47
2022-09-25T02:36:28.321Z,1007.47
2022-09-25T02:37:28.304Z,1007.45
2022-09-25T02:38:28.287Z,1007.47
2022-09-25T02:39:28.265Z,1007.47
2022-09-25T02:40:28.257Z,1007.48
2022-09-25T02:41:28.229Z,1007.49
2022-09-25T02:42:28.212Z,1007.50
2022-09-25T02:43:28.198Z,1007.51
2022-09-25T02:44:28.191Z,1007.49
2022-09-25T02:45:28.154Z,1007.48
2022-09-25T02:46:28.161Z,1007.50
2022-09-25T02:47:28.118Z,1007.53
2022-09-25T02:48:28.096Z,1007.51
2022-09-25T02:49:28.078Z,1007.51
2022-09-25T02:50:28.067Z,1007.50
2022-09-25T02:51:28.044Z,1007.46
2022-09-25T02:52:28.024Z,1007.47
2022-09-25T02:53:28.006Z,1007.51
2022-09-25T02:54:27.987Z,1007.51
2022-09-25T02:55:27.968Z,1007.51
2022-09-25T02:56:27.956Z,1007.50
2022-09-25T02:57:27.935Z,1007.49
2022-09-25T02:58:27.915Z,1007.47
2022-09-25T02:59:27.895Z,1007.47
2022-09-25T03:00:27.976Z,1007.46
2022-09-25T03:01:27.892Z,1007.50
2022-09-25T03:02:27.969Z,1007.47
2022-09-25T03:03:27.816Z,1007.45
2022-09-25T03:04:27.799Z,1007.46
2022-09-25T03:05:27.784Z,1007.46
2022-09-25T03:06:27.762Z,1007.49
2022-09-25T03:07:27.747Z,1007.47
2022-09-25T03:08:27.729Z,1007.47
2022-09-25T03:09:27.708Z,1007.45
2022-09-25T03:10:27.689Z,1007.49
2022-09-25T03:11:27.678Z,1007.48
2022-09-25T03:12:27.656Z,1007.49
2022-09-25T03:13:27.634Z,1007.47
2022-09-25T03:14:27.612Z,1007.47
2022-09-25T03:15:27.599Z,1007.47
2022-09-25T03:16:27.729Z,1007.48
2022-09-25T03:17:27.557Z,1007.47
2022-09-25T03:18:27.538Z,1007.47
2022-09-25T03:19:27.524Z,1007.48
2022-09-25T03:20:27.503Z,1007.47
2022-09-25T03:21:27.485Z,1007.47
2022-09-25T03:22:27.468Z,1007.44
2022-09-25T03:23:27.449Z,1007.43
2022-09-25T03:24:27.429Z,1007.44
2022-09-25T03:25:27.414Z,1007.43
2022-09-25T03:26:27.399Z,1007.45
2022-09-25T03:27:27.374Z,1007.48
2022-09-25T03:28:27.358Z,1007.44
2022-09-25T03:29:27.350Z,1007.43
2022-09-25T03:30:27.313Z,1007.42
2022-09-25T03:31:27.394Z,1007.39
2022-09-25T03:32:27.300Z,1007.43
2022-09-25T03:33:27.262Z,1007.39
2022-09-25T03:34:27.239Z,1007.40
2022-09-25T03:35:27.226Z,1007.34
2022-09-25T03:36:27.200Z,1007.35
2022-09-25T03:37:27.198Z,1007.36
2022-09-25T03:38:27.169Z,1007.35
2022-09-25T03:39:27.145Z,1007.34
2022-09-25T03:40:27.167Z,1007.38
2022-09-25T03:41:27.107Z,1007.38
2022-09-25T03:42:27.088Z,1007.37
2022-09-25T03:43:27.069Z,1007.36
2022-09-25T03:44:27.052Z,1007.35
2022-09-25T03:45:27.033Z,1007.38
2022-09-25T03:46:27.110Z,1007.37
2022-09-25T03:47:26.997Z,1007.32
2022-09-25T03:48:27.000Z,1007.33
2022-09-25T03:49:26.960Z,1007.35
2022-09-25T03:50:26.939Z,1007.32
2022-09-25T03:51:26.926Z,1007.32
2022-09-25T03:52:26.905Z,1007.27
2022-09-25T03:53:26.888Z,1007.24
2022-09-25T03:54:26.867Z,1007.22
2022-09-25T03:55:26.849Z,1007.22
2022-09-25T03:56:26.827Z,1007.19
2022-09-25T03:57:26.810Z,1007.20
2022-09-25T03:58:26.793Z,1007.21
2022-09-25T03:59:26.773Z,1007.25
2022-09-25T04:00:26.756Z,1007.25
2022-09-25T04:01:26.824Z,1007.26
2022-09-25T04:02:26.793Z,1007.23
2022-09-25T04:03:26.708Z,1007.23
2022-09-25T04:04:26.695Z,1007.19
2022-09-25T04:05:26.659Z,1007.17
2022-09-25T04:06:26.649Z,1007.15
2022-09-25T04:07:26.623Z,1007.16
2022-09-25T04:08:26.600Z,1007.16
2022-09-25T04:09:26.583Z,1007.18
2022-09-25T04:10:26.564Z,1007.17
2022-09-25T04:11:26.548Z,1007.16
2022-09-25T04:12:26.528Z,1007.16
2022-09-25T04:13:26.516Z,1007.15
2022-09-25T04:14:26.491Z,1007.15
2022-09-25T04:15:26.469Z,1007.17
2022-09-25T04:16:26.546Z,1007.16
2022-09-25T04:17:26.438Z,1007.16
2022-09-25T04:18:26.414Z,1007.17
2022-09-25T04:19:26.395Z,1007.16
2022-09-25T04:20:26.407Z,1007.19
2022-09-25T04:21:26.356Z,1007.22
2022-09-25T04:22:26.340Z,1007.18
2022-09-25T04:23:26.320Z,1007.20
2022-09-25T04:24:26.304Z,1007.18
2022-09-25T04:25:26.285Z,1007.17
2022-09-25T04:26:26.265Z,1007.18
2022-09-25T04:27:26.245Z,1007.16
2022-09-25T04:28:26.230Z,1007.18
2022-09-25T04:29:26.209Z,1007.20
2022-09-25T04:30:26.189Z,1007.22
2022-09-25T04:31:26.245Z,1007.22
2022-09-25T04:32:26.154Z,1007.20
2022-09-25T04:33:26.134Z,1007.22
2022-09-25T04:34:26.111Z,1007.18
2022-09-25T04:35:26.095Z,1007.14
2022-09-25T04:36:26.092Z,1007.15
2022-09-25T04:37:26.057Z,1007.15
2022-09-25T04:38:26.039Z,1007.14
2022-09-25T04:39:26.018Z,1007.14
2022-09-25T04:40:26.029Z,1007.14
2022-09-25T04:41:25.989Z,1007.15
2022-09-25T04:42:25.963Z,1007.18
2022-09-25T04:43:25.946Z,1007.16
2022-09-25T04:44:25.924Z,1007.15
2022-09-25T04:45:25.908Z,1007.17
2022-09-25T04:46:25.951Z,1007.16
2022-09-25T04:47:25.890Z,1007.18
2022-09-25T04:48:25.845Z,1007.15
2022-09-25T04:49:25.826Z,1007.13
2022-09-25T04:50:25.806Z,1007.11
2022-09-25T04:51:25.792Z,1007.16
2022-09-25T04:52:25.873Z,1007.12
2022-09-25T04:53:25.752Z,1007.13
2022-09-25T04:54:25.735Z,1007.20
2022-09-25T04:55:25.713Z,1007.19
2022-09-25T04:56:25.704Z,1007.20
2022-09-25T04:57:53.683Z,1007.23
2022-09-25T04:58:25.656Z,1007.23
2022-09-25T04:59:25.635Z,1007.27
2022-09-25T05:00:25.616Z,1007.27
2022-09-25T05:01:25.684Z,1007.22
2022-09-25T05:02:25.755Z,1007.25
2022-09-25T05:03:25.653Z,1007.21
2022-09-25T05:04:25.538Z,1007.24
2022-09-25T05:05:25.524Z,1007.25
2022-09-25T05:06:25.515Z,1007.27
2022-09-25T05:07:25.489Z,1007.28
2022-09-25T05:08:25.485Z,1007.27
2022-09-25T05:09:25.446Z,1007.26
2022-09-25T05:10:25.426Z,1007.31
2022-09-25T05:11:25.404Z,1007.27
2022-09-25T05:12:25.385Z,1007.28
2022-09-25T05:13:25.366Z,1007.26
2022-09-25T05:14:25.346Z,1007.29
2022-09-25T05:15:25.333Z,1007.27
2022-09-25T05:16:25.459Z,1007.30
2022-09-25T05:17:25.288Z,1007.32
2022-09-25T05:18:25.277Z,1007.33
2022-09-25T05:19:25.256Z,1007.30
2022-09-25T05:20:25.238Z,1007.26
2022-09-25T05:21:25.217Z,1007.27
2022-09-25T05:22:25.195Z,1007.25
2022-09-25T05:23:25.177Z,1007.27
2022-09-25T05:24:25.179Z,1007.26
2022-09-25T05:25:25.136Z,1007.25
2022-09-25T05:26:25.119Z,1007.24
2022-09-25T05:27:25.102Z,1007.22
2022-09-25T05:28:25.082Z,1007.20
2022-09-25T05:29:25.062Z,1007.21
2022-09-25T05:30:25.040Z,1007.21
2022-09-25T05:31:25.105Z,1007.20
2022-09-25T05:32:24.998Z,1007.21
2022-09-25T05:33:24.998Z,1007.22
2022-09-25T05:34:24.961Z,1007.21
2022-09-25T05:35:24.944Z,1007.21
2022-09-25T05:36:24.924Z,1007.21
2022-09-25T05:37:24.911Z,1007.18
2022-09-25T05:38:24.884Z,1007.18
2022-09-25T05:39:24.874Z,1007.17
2022-09-25T05:40:24.888Z,1007.17
2022-09-25T05:41:24.828Z,1007.12
2022-09-25T05:42:24.813Z,1007.15
2022-09-25T05:43:24.792Z,1007.17
2022-09-25T05:44:24.771Z,1007.16
2022-09-25T05:45:24.750Z,1007.18
2022-09-25T05:46:24.805Z,1007.18
2022-09-25T05:47:24.711Z,1007.18
2022-09-25T05:48:24.694Z,1007.15
2022-09-25T05:49:24.670Z,1007.17
2022-09-25T05:50:24.653Z,1007.17
2022-09-25T05:51:24.631Z,1007.18
2022-09-25T05:52:24.629Z,1007.16
2022-09-25T05:53:24.596Z,1007.18
2022-09-25T05:54:24.573Z,1007.18
2022-09-25T05:55:24.554Z,1007.19
2022-09-25T05:56:24.561Z,1007.19
2022-09-25T05:57:24.537Z,1007.18
2022-09-25T05:58:24.496Z,1007.21
2022-09-25T05:59:24.486Z,1007.23
2022-09-25T06:00:24.462Z,1007.20
2022-09-25T06:01:24.483Z,1007.19
2022-09-25T06:02:24.472Z,1007.19
2022-09-25T06:03:24.452Z,1007.17
2022-09-25T06:04:24.383Z,1007.16
2022-09-25T06:05:24.357Z,1007.22
2022-09-25T06:06:27.461Z,1007.24
2022-09-25T06:07:24.321Z,1007.21
2022-09-25T06:08:24.303Z,1007.21
2022-09-25T06:09:24.282Z,1007.24
2022-09-25T06:10:24.266Z,1007.23
2022-09-25T06:11:24.245Z,1007.23
2022-09-25T06:12:24.244Z,1007.25
2022-09-25T06:13:24.225Z,1007.21
2022-09-25T06:14:24.187Z,1007.23
2022-09-25T06:15:24.174Z,1007.20
2022-09-25T06:16:24.212Z,1007.18
2022-09-25T06:17:24.139Z,1007.15
2022-09-25T06:18:24.111Z,1007.14
2022-09-25T06:19:24.094Z,1007.14
2022-09-25T06:20:24.073Z,1007.19
2022-09-25T06:21:24.053Z,1007.21
2022-09-25T06:22:24.032Z,1007.19
2022-09-25T06:23:24.019Z,1007.21
2022-09-25T06:24:23.992Z,1007.19
2022-09-25T06:25:24.043Z,1007.21
2022-09-25T06:26:23.953Z,1007.23
2022-09-25T06:27:23.945Z,1007.25
2022-09-25T06:28:23.941Z,1007.24
2022-09-25T06:29:23.905Z,1007.28
2022-09-25T06:30:23.882Z,1007.27
2022-09-25T06:31:23.961Z,1007.27
2022-09-25T06:32:23.846Z,1007.29
2022-09-25T06:33:23.824Z,1007.24
2022-09-25T06:34:23.805Z,1007.25
2022-09-25T06:35:23.788Z,1007.28
2022-09-25T06:36:23.774Z,1007.30
2022-09-25T06:37:23.749Z,1007.31
2022-09-25T06:38:23.735Z,1007.33
2022-09-25T06:39:23.710Z,1007.37
2022-09-25T06:40:23.743Z,1007.37
2022-09-25T06:41:23.676Z,1007.36
2022-09-25T06:42:23.664Z,1007.37
2022-09-25T06:43:23.643Z,1007.37
2022-09-25T06:44:23.645Z,1007.37
2022-09-25T06:45:23.612Z,1007.41
2022-09-25T06:46:23.637Z,1007.44
2022-09-25T06:47:26.870Z,1007.47
2022-09-25T06:48:23.557Z,1007.45
2022-09-25T06:49:23.542Z,1007.53
2022-09-25T06:50:23.524Z,1007.47
2022-09-25T06:51:23.513Z,1007.50
2022-09-25T06:52:23.493Z,1007.47
2022-09-25T06:53:23.500Z,1007.52
2022-09-25T06:54:23.471Z,1007.61
2022-09-25T06:55:23.457Z,1007.71
2022-09-25T06:56:23.441Z,1007.68
2022-09-25T06:57:23.420Z,1007.72
2022-09-25T06:58:23.418Z,1007.79
2022-09-25T06:59:23.405Z,1007.83
2022-09-25T07:00:23.415Z,1007.80
2022-09-25T07:01:23.448Z,1007.80
2022-09-25T07:02:23.462Z,1007.85
2022-09-25T07:03:23.355Z,1007.86
2022-09-25T07:04:23.347Z,1007.85
2022-09-25T07:05:23.334Z,1007.85
2022-09-25T07:06:23.324Z,1007.84
2022-09-25T07:07:23.313Z,1007.89
2022-09-25T07:08:23.308Z,1007.88
2022-09-25T07:09:23.295Z,1007.94
2022-09-25T07:10:23.286Z,1007.95
2022-09-25T07:11:23.277Z,1007.98
2022-09-25T07:12:23.272Z,1007.98
2022-09-25T07:13:23.263Z,1007.98
2022-09-25T07:14:23.246Z,1007.99
2022-09-25T07:15:23.243Z,1008.02
2022-09-25T07:16:23.304Z,1008.04
2022-09-25T07:17:23.225Z,1008.05
2022-09-25T07:18:23.218Z,1008.08
2022-09-25T07:19:27.082Z,1008.08
2022-09-25T07:20:23.209Z,1008.10
2022-09-25T07:21:23.195Z,1008.13
2022-09-25T07:22:23.190Z,1008.16
2022-09-25T07:23:23.183Z,1008.15
2022-09-25T07:24:23.181Z,1008.14
2022-09-25T07:25:23.175Z,1008.15
2022-09-25T07:26:23.169Z,1008.15
2022-09-25T07:27:23.161Z,1008.19
2022-09-25T07:28:23.162Z,1008.21
2022-09-25T07:29:23.150Z,1008.23
2022-09-25T07:30:23.151Z,1008.17
2022-09-25T07:31:23.214Z,1008.22
2022-09-25T07:32:23.157Z,1008.23
2022-09-25T07:33:23.135Z,1008.21
2022-09-25T07:34:23.129Z,1008.20
2022-09-25T07:35:23.126Z,1008.20
2022-09-25T07:36:23.141Z,1008.21
2022-09-25T07:37:23.114Z,1008.22
2022-09-25T07:38:23.116Z,1008.24
2022-09-25T07:39:23.114Z,1008.19
2022-09-25T07:40:23.198Z,1008.25
2022-09-25T07:41:23.109Z,1008.22
2022-09-25T07:42:23.104Z,1008.22
2022-09-25T07:43:23.103Z,1008.22
2022-09-25T07:44:36.232Z,1008.20
2022-09-25T07:45:23.109Z,1008.25
2022-09-25T07:46:23.157Z,1008.28
2022-09-25T07:47:23.095Z,1008.27
2022-09-25T07:48:23.123Z,1008.29
2022-09-25T07:49:23.094Z,1008.30
2022-09-25T07:50:23.122Z,1008.35
2022-09-25T07:51:23.091Z,1008.30
2022-09-25T07:52:23.089Z,1008.31
2022-09-25T07:53:23.090Z,1008.33
2022-09-25T07:54:23.087Z,1008.38
2022-09-25T07:55:23.091Z,1008.36
2022-09-25T07:56:23.089Z,1008.37
2022-09-25T07:57:23.088Z,1008.35
2022-09-25T07:58:23.086Z,1008.39
2022-09-25T07:59:23.094Z,1008.28
2022-09-25T08:00:23.087Z,1008.44
2022-09-25T08:01:23.183Z,1008.41
2022-09-25T08:02:23.206Z,1008.44
2022-09-25T08:03:23.084Z,1008.46
2022-09-25T08:04:23.109Z,1008.51
2022-09-25T08:05:23.082Z,1008.54
2022-09-25T08:06:23.083Z,1008.52
2022-09-25T08:07:23.082Z,1008.51
2022-09-25T08:08:23.087Z,1008.54
2022-09-25T08:09:23.083Z,1008.57
2022-09-25T08:10:23.135Z,1008.57
2022-09-25T08:11:23.084Z,1008.58
2022-09-25T08:12:23.086Z,1008.57
2022-09-25T08:13:23.089Z,1008.54
2022-09-25T08:14:26.674Z,1008.58
2022-09-25T08:15:23.094Z,1008.53
2022-09-25T08:16:23.133Z,1008.51
2022-09-25T08:17:23.092Z,1008.53
2022-09-25T08:18:23.092Z,1008.54
2022-09-25T08:19:23.089Z,1008.53
2022-09-25T08:20:23.116Z,1008.53
2022-09-25T08:21:23.100Z,1008.46
2022-09-25T08:22:23.094Z,1008.49
2022-09-25T08:23:23.095Z,1008.49
2022-09-25T08:24:23.095Z,1008.53
2022-09-25T08:25:23.097Z,1008.51
2022-09-25T08:26:23.146Z,1008.45
2022-09-25T08:27:23.100Z,1008.47
2022-09-25T08:28:23.122Z,1008.50
2022-09-25T08:29:23.114Z,1008.52
2022-09-25T08:30:23.107Z,1008.58
2022-09-25T08:31:23.181Z,1008.56
2022-09-25T08:32:23.106Z,1008.58
2022-09-25T08:33:23.110Z,1008.53
2022-09-25T08:34:41.977Z,1008.56
2022-09-25T08:35:23.114Z,1008.55
2022-09-25T08:36:23.135Z,1008.57
2022-09-25T08:37:23.115Z,1008.58
2022-09-25T08:38:23.117Z,1008.63
2022-09-25T08:39:23.122Z,1008.67
2022-09-25T08:40:23.200Z,1008.65
2022-09-25T08:41:23.121Z,1008.62
2022-09-25T08:42:23.125Z,1008.61
2022-09-25T08:43:23.129Z,1008.63
2022-09-25T08:44:23.134Z,1008.41
2022-09-25T08:45:23.130Z,1008.68
2022-09-25T08:46:23.214Z,1008.71
2022-09-25T08:47:23.131Z,1008.64
2022-09-25T08:48:23.137Z,1008.64
2022-09-25T08:49:23.135Z,1008.62
2022-09-25T08:50:23.137Z,1008.63
2022-09-25T08:51:23.137Z,1008.65
2022-09-25T08:52:23.159Z,1008.76
2022-09-25T08:54:23.145Z,1008.71
2022-09-25T08:55:23.144Z,1008.76
2022-09-25T08:56:23.147Z,1008.76
2022-09-25T08:57:23.154Z,1008.69
2022-09-25T08:58:23.150Z,1008.65
2022-09-25T08:59:23.149Z,1008.64
2022-09-25T09:00:23.153Z,1008.65
2022-09-25T09:01:23.241Z,1008.64
2022-09-25T09:02:23.274Z,1008.65
2022-09-25T09:03:23.154Z,1008.68
2022-09-25T09:04:23.152Z,1008.28
2022-09-25T09:05:23.155Z,1007.91
2022-09-25T09:06:23.155Z,1008.10
2022-09-25T09:07:27.848Z,1008.66
2022-09-25T09:08:23.257Z,1008.77
2022-09-25T09:09:23.154Z,1007.98
2022-09-25T09:10:23.149Z,1008.12
2022-09-25T09:11:23.147Z,1008.20
2022-09-25T09:12:23.147Z,1008.42
2022-09-25T09:13:23.142Z,1007.91
2022-09-25T09:14:23.141Z,1007.96
2022-09-25T09:15:23.136Z,1008.06
2022-09-25T09:16:23.137Z,1008.66
2022-09-25T09:17:23.127Z,1008.24
2022-09-25T09:18:23.126Z,1008.68
2022-09-25T09:19:23.120Z,1008.67
2022-09-25T09:20:23.118Z,1008.67
2022-09-25T09:21:23.111Z,1008.65
2022-09-25T09:22:23.107Z,1008.62
2022-09-25T09:23:23.111Z,1008.64
2022-09-25T09:24:23.122Z,1008.64
2022-09-25T09:25:23.094Z,1008.61
2022-09-25T09:26:23.092Z,1008.02
2022-09-25T09:27:23.086Z,1007.83
2022-09-25T09:28:23.087Z,1008.03
2022-09-25T09:29:23.083Z,1008.14
2022-09-25T09:30:23.074Z,1008.57
2022-09-25T09:31:23.193Z,1008.48
2022-09-25T09:32:23.069Z,1007.97
2022-09-25T09:33:23.061Z,1007.88
2022-09-25T09:34:36.134Z,1007.88
2022-09-25T09:35:23.048Z,1007.88
2022-09-25T09:36:23.061Z,1008.04
2022-09-25T09:37:23.032Z,1008.05
2022-09-25T09:38:23.030Z,1008.09
2022-09-25T09:39:23.028Z,1008.10
2022-09-25T09:40:23.115Z,1008.00
2022-09-25T09:41:23.010Z,1007.83
2022-09-25T09:42:23.007Z,1007.85
2022-09-25T09:43:23.012Z,1007.95
2022-09-25T09:44:23.028Z,1008.02
2022-09-25T09:45:22.985Z,1008.02
2022-09-25T09:46:23.037Z,1007.93
2022-09-25T09:47:22.971Z,1007.86
2022-09-25T09:48:22.959Z,1007.98
2022-09-25T09:49:22.964Z,1007.96
2022-09-25T09:50:22.947Z,1007.98
2022-09-25T09:51:22.937Z,1007.95
2022-09-25T09:52:22.935Z,1007.97
2022-09-25T09:53:22.925Z,1007.97
2022-09-25T09:54:22.915Z,1007.95
2022-09-25T09:55:22.911Z,1007.96
2022-09-25T09:56:23.008Z,1007.91
2022-09-25T09:57:22.898Z,1007.84
2022-09-25T09:58:22.888Z,1007.76
2022-09-25T09:59:22.881Z,1007.92
2022-09-25T10:00:22.887Z,1007.75
2022-09-25T10:01:40.247Z,1007.74
2022-09-25T10:02:23.018Z,1007.85
2022-09-25T10:03:22.992Z,1007.76
2022-09-25T10:04:22.844Z,1007.77
2022-09-25T10:05:22.838Z,1007.76
2022-09-25T10:06:22.846Z,1007.72
2022-09-25T10:07:22.822Z,1007.73
2022-09-25T10:08:22.817Z,1007.75
2022-09-25T10:09:22.804Z,1007.83
2022-09-25T10:10:22.793Z,1007.84
2022-09-25T10:11:22.785Z,1007.82
2022-09-25T10:12:22.818Z,1007.80
2022-09-25T10:13:22.767Z,1007.80
2022-09-25T10:14:22.761Z,1007.83
2022-09-25T10:15:22.755Z,1007.81
2022-09-25T10:16:22.754Z,1007.75
2022-09-25T10:17:22.735Z,1007.76
2022-09-25T10:18:22.723Z,1007.77
2022-09-25T10:19:22.717Z,1007.79
2022-09-25T10:20:22.705Z,1007.78
2022-09-25T10:21:22.695Z,1007.76
2022-09-25T10:22:22.691Z,1007.76
2022-09-25T10:23:22.682Z,1007.76
2022-09-25T10:24:22.674Z,1007.76
2022-09-25T10:25:22.661Z,1007.75
2022-09-25T10:26:22.658Z,1007.65
2022-09-25T10:27:22.642Z,1007.75
2022-09-25T10:28:22.684Z,1007.63
2022-09-25T10:29:22.635Z,1007.60
2022-09-25T10:30:22.620Z,1007.59
2022-09-25T10:31:22.644Z,1007.58
2022-09-25T10:32:22.603Z,1007.55
2022-09-25T10:33:22.592Z,1007.54
2022-09-25T10:34:22.616Z,1007.55
2022-09-25T10:35:22.575Z,1007.55
2022-09-25T10:36:22.565Z,1007.56
2022-09-25T10:37:22.567Z,1007.50
2022-09-25T10:38:22.553Z,1007.54
2022-09-25T10:39:42.951Z,1007.54
2022-09-25T10:40:22.582Z,1007.54
2022-09-25T10:41:22.517Z,1007.55
2022-09-25T10:42:22.513Z,1007.57
2022-09-25T10:43:22.499Z,1007.71
2022-09-25T10:44:22.593Z,1007.67
2022-09-25T10:45:22.477Z,1007.63
2022-09-25T10:46:22.501Z,1007.62
2022-09-25T10:47:22.459Z,1007.59
2022-09-25T10:48:22.444Z,1007.57
2022-09-25T10:49:22.438Z,1007.59
2022-09-25T10:50:22.431Z,1007.55
2022-09-25T10:51:22.426Z,1007.48
2022-09-25T10:52:22.430Z,1007.54
2022-09-25T10:53:22.391Z,1007.52
2022-09-25T10:54:22.383Z,1007.56
2022-09-25T10:55:22.378Z,1007.57
2022-09-25T10:56:22.366Z,1007.57
2022-09-25T10:57:22.353Z,1007.61
2022-09-25T10:58:22.344Z,1007.55
2022-09-25T10:59:22.634Z,1007.58
2022-09-25T11:00:22.350Z,1007.60
2022-09-25T11:01:22.420Z,1007.63
2022-09-25T11:02:22.481Z,1007.62
2022-09-25T11:03:22.298Z,1007.61
2022-09-25T11:04:22.286Z,1007.58
2022-09-25T11:05:22.276Z,1007.57
2022-09-25T11:06:22.265Z,1007.54
2022-09-25T11:07:22.255Z,1007.52
2022-09-25T11:08:22.244Z,1007.54
2022-09-25T11:09:22.237Z,1007.54
2022-09-25T11:10:22.236Z,1007.53
2022-09-25T11:11:22.214Z,1007.53
2022-09-25T11:12:22.215Z,1007.55
2022-09-25T11:13:22.203Z,1007.52
2022-09-25T11:14:22.182Z,1007.54
2022-09-25T11:15:22.178Z,1007.51
2022-09-25T11:16:22.221Z,1007.47
2022-09-25T11:17:22.165Z,1007.49
2022-09-25T11:18:22.151Z,1007.43
2022-09-25T11:19:22.135Z,1007.36
2022-09-25T11:20:22.125Z,1007.45
2022-09-25T11:21:22.119Z,1007.37
2022-09-25T11:22:22.102Z,1007.37
2022-09-25T11:23:22.094Z,1007.35
2022-09-25T11:24:22.079Z,1007.36
2022-09-25T11:25:22.073Z,1007.36
2022-09-25T11:26:22.061Z,1007.36
2022-09-25T11:27:22.050Z,1007.34
2022-09-25T11:28:22.046Z,1007.47
2022-09-25T11:29:22.029Z,1007.43
2022-09-25T11:30:22.020Z,1007.42
2022-09-25T11:31:22.069Z,1007.43
2022-09-25T11:32:22.018Z,1007.46
2022-09-25T11:33:22.038Z,1007.38
2022-09-25T11:34:21.977Z,1007.42
2022-09-25T11:35:21.979Z,1007.37
2022-09-25T11:36:21.952Z,1007.41
2022-09-25T11:37:21.941Z,1007.40
2022-09-25T11:38:21.930Z,1007.40
2022-09-25T11:39:21.934Z,1007.41
2022-09-25T11:40:21.931Z,1007.34
2022-09-25T11:41:21.900Z,1007.32
2022-09-25T11:42:21.885Z,1007.29
2022-09-25T11:43:21.877Z,1007.28
2022-09-25T11:44:21.865Z,1007.32
2022-09-25T11:45:21.856Z,1007.28
2022-09-25T11:46:21.898Z,1007.28
2022-09-25T11:47:21.835Z,1007.28
2022-09-25T11:48:21.847Z,1007.24
2022-09-25T11:49:21.810Z,1007.22
2022-09-25T11:50:21.806Z,1007.24
2022-09-25T11:51:21.791Z,1007.23
2022-09-25T11:52:21.779Z,1007.20
2022-09-25T11:53:21.774Z,1007.16
2022-09-25T11:55:21.750Z,1007.16
2022-09-25T11:56:21.740Z,1007.16
2022-09-25T11:57:21.727Z,1007.18
2022-09-25T11:58:21.719Z,1007.13
2022-09-25T11:59:21.713Z,1007.14
2022-09-25T12:00:21.697Z,1007.10
2022-09-25T12:01:21.720Z,1007.08
2022-09-25T12:02:21.708Z,1007.10
2022-09-25T12:03:21.671Z,1007.03
2022-09-25T12:04:21.674Z,1007.01
2022-09-25T12:05:21.642Z,1007.00
2022-09-25T12:06:21.646Z,1007.05
2022-09-25T12:07:21.623Z,1007.05